Aviation Digital Data Service (ADDS)

Output produced by METARs form (1254 UTC 26 March 2019)
found at http://www.aviationweather.gov/metar/data/
 
GMAD 261230Z 25011KT 8000 SCT026 SCT083 23/13 Q1007 NOSIG
TAF GMAD 261100Z 2612/2718 13009KT 8000 SCT026 SCT083 
     BECMG 2615/2617 27016KT 
     TEMPO 2620/2622 10004KT
       
GMMC 261200Z 36016G31KT NSC 19/13 Q1007
GMFO 261200Z 33011KT 9999 FEW030 SCT130 21/12 Q1012 NOSIG
TAF GMFO 261100Z 2612/2718 36016KT 9999 SCT026 BKN100 
     TEMPO 2622/2710 SHRA BKN020 FEW033CB BKN090
       
GMMW 261200Z 05014G24KT 6000 BKN008 BKN020 15/12 Q1013 NOSIG
TAF GMMW 261100Z 2612/2718 05013KT 5000 FEW015 BKN040 
     PROB40 2616/2621 05015G30KT 
     PROB40 
     TEMPO 2619/2624 5000 RA 
     PROB30 
     TEMPO 2705/2718 5000 -RA
       
GMFM 261200Z 28006KT 6000 FEW020 SCT200 26/07 Q1008 NOSIG
TAF GMFM 261100Z 2612/2718 06007KT 6000 FEW020 BKN200 
     BECMG 2614/2618 -RA SCT020 FEW026CB BKN200 
     PROB40 
     TEMPO 2618/2624 06016G26KT 4000 TSRA
       
GMTA 261200Z 06012KT 6000 BKN023 18/13 Q1013 NOSIG
TAF GMTA 261100Z 2612/2718 04012KT 7000 FEW010 BKN030 
     PROB40 2612/2621 36010G30KT 
     BECMG 2621/2623 BKN011 BKN120 
     PROB40 
     TEMPO 2700/2704 5000 RA 
     BECMG 2710/2712 FEW020 BKN040
       
GMMI 261200Z 02004KT 8000 BKN030 17/15 Q1009 NOSIG
TAF GMMI 261100Z 2612/2718 25007KT 8000 NSC 
     PROB40 2709/2713 5000 -RA
       
GMTT 261230Z 10026G37KT 070V130 9000 SCT016 SCT100 BKN200 18/12 Q1010 NOSIG
TAF GMTT 261100Z 2612/2718 09030G45KT 9999 FEW020 SCT100 BKN200 
     PROB30 
     TEMPO 2623/2710 4000 RA
       
GMMX 261230Z 30009KT 250V350 9999 SCT026 FEW033CB SCT200 23/10 Q1007 NOSIG
TAF GMMX 261100Z 2612/2718 30008KT 8000 SCT026 SCT100 
     TEMPO 2615/2701 24016KT 4000 TSRA BKN023 SCT030CB
       
GMMN 261230Z 02009KT 340V050 9999 SCT016 SCT100 22/13 Q1008 NOSIG
TAF GMMN 261100Z 2612/2718 34016KT 9999 SCT016 SCT100 
     TEMPO 2620/2710 34018G30KT 6000 TSRA BKN016 FEW023CB
       
GMFK 261200Z 09006KT 050V150 CAVOK 21/M01 Q1014 NOSIG
TAF GMFK 261100Z 2612/2718 10005KT 9999 FEW030
       
GMMZ 261200Z 23013KT 6000 SCT040 FEW050CB SCT200 17/01 Q1015 NOSIG
TAF GMMZ 261100Z 2612/2718 10006KT 8000 FEW040 
     PROB40 
     TEMPO 2614/2700 18017G30KT 5000 TSRA SCT040 FEW050CB
       
GMAT 261200Z 16012KT 9999 SCT016 22/08 Q1009 NOSIG
GMFF 261230Z 04012KT 010V080 9999 FEW030 25/08 Q1008 NOSIG
TAF GMFF 261100Z 2612/2718 06014KT 9999 FEW030 SCT100 
     BECMG 2613/2615 SCT026 FEW040CB SCT100 
     PROB40 
     TEMPO 2615/2622 06015G26KT TSRA 
     BECMG 2700/2702 SCT026 SCT100 
     BECMG 2708/2710 RA BKN020 FEW033CB BKN100
       
GMME 261230Z 30012KT 270V340 6000 FEW026 SCT100 20/14 Q1008 NOSIG
TAF GMME 261100Z 2612/2718 22010KT 6000 SCT020 BKN080 
     TEMPO 2618/2712 22015KT 3000 TSRA FEW020CB BKN016
       
GMTN 261200Z 09016KT 3000 -DZ BR BKN007 BKN020 15/13 Q1013 NOSIG